createdAt,value
2019-04-14T00:02:25.035Z,0.40
2019-04-14T00:04:59.464Z,0.42
2019-04-14T00:07:32.159Z,0.40
2019-04-14T00:10:05.022Z,0.50
2019-04-14T00:12:38.420Z,0.40
2019-04-14T00:15:25.712Z,0.40
2019-04-14T00:17:46.484Z,0.60
2019-04-14T00:20:18.688Z,0.55
2019-04-14T00:22:51.221Z,0.57
2019-04-14T00:25:23.797Z,0.37
2019-04-14T00:27:56.447Z,0.60
2019-04-14T00:30:29.468Z,0.40
2019-04-14T00:33:06.185Z,0.37
2019-04-14T00:36:00.495Z,0.30
2019-04-14T00:38:36.908Z,0.40
2019-04-14T00:41:37.379Z,0.40
2019-04-14T00:44:18.904Z,0.40
2019-04-14T00:47:03.287Z,0.40
2019-04-14T00:49:35.488Z,0.30
2019-04-14T00:52:08.554Z,0.72
2019-04-14T00:54:41.417Z,0.37
2019-04-14T00:57:14.385Z,0.50
2019-04-14T00:59:46.746Z,0.57
2019-04-14T01:02:19.200Z,0.57
2019-04-14T01:04:51.943Z,0.57
2019-04-14T01:07:24.441Z,0.60
2019-04-14T01:09:57.519Z,0.75
2019-04-14T01:12:30.051Z,0.50
2019-04-14T01:15:03.096Z,0.50
2019-04-14T01:17:35.346Z,0.60
2019-04-14T01:20:08.193Z,0.82
2019-04-14T01:22:40.561Z,0.47
2019-04-14T01:25:13.123Z,0.33
2019-04-14T01:27:45.592Z,0.40
2019-04-14T01:30:19.774Z,0.85
2019-04-14T01:32:52.258Z,0.98
2019-04-14T01:35:24.964Z,0.90
2019-04-14T01:37:57.352Z,1.47
2019-04-14T01:40:30.002Z,1.15
2019-04-14T01:43:03.833Z,1.10
2019-04-14T01:45:36.189Z,1.30
2019-04-14T01:48:08.788Z,1.52
2019-04-14T01:51:00.575Z,1.22
2019-04-14T01:53:51.724Z,1.87
2019-04-14T01:56:32.562Z,1.57
2019-04-14T01:59:06.513Z,1.37
2019-04-14T02:01:41.049Z,1.72
2019-04-14T02:04:13.832Z,2.02
2019-04-14T02:06:46.315Z,2.45
2019-04-14T02:09:20.731Z,1.95
2019-04-14T02:11:53.369Z,1.70
2019-04-14T02:14:25.671Z,1.67
2019-04-14T02:17:00.883Z,2.00
2019-04-14T02:19:32.780Z,2.33
2019-04-14T02:22:05.260Z,1.90
2019-04-14T02:24:37.906Z,1.82
2019-04-14T02:27:10.502Z,2.80
2019-04-14T02:29:43.130Z,2.40
2019-04-14T02:32:43.457Z,1.77
2019-04-14T02:37:55.974Z,2.25
2019-04-14T02:40:34.784Z,2.47
2019-04-14T02:43:03.967Z,2.17
2019-04-14T02:45:40.215Z,2.40
2019-04-14T02:48:20.263Z,2.00
2019-04-14T02:50:43.122Z,1.92
2019-04-14T02:53:15.657Z,1.98
2019-04-14T02:55:49.104Z,1.70
2019-04-14T02:58:32.717Z,1.70
2019-04-14T03:01:00.149Z,1.80
2019-04-14T03:03:33.989Z,1.72
2019-04-14T03:08:45.265Z,1.90
2019-04-14T03:11:09.373Z,1.80
2019-04-14T03:13:49.270Z,1.82
2019-04-14T03:16:25.863Z,1.82
2019-04-14T03:19:16.626Z,1.90
2019-04-14T03:22:06.855Z,1.82
2019-04-14T03:24:42.266Z,1.60
2019-04-14T03:27:30.868Z,1.92
2019-04-14T03:30:46.361Z,1.60
2019-04-14T03:33:27.257Z,2.17
2019-04-14T03:45:55.192Z,2.20
2019-04-14T03:50:58.501Z,2.70
2019-04-14T03:53:27.566Z,2.42
2019-04-14T03:56:35.659Z,3.22
2019-04-14T03:59:10.625Z,2.95
2019-04-14T04:01:43.517Z,2.40
2019-04-14T04:04:16.177Z,2.85
2019-04-14T04:06:48.695Z,2.62
2019-04-14T04:09:23.556Z,3.22
2019-04-14T04:11:56.327Z,4.60
2019-04-14T04:14:29.524Z,4.80
2019-04-14T04:17:10.197Z,3.30
2019-04-14T04:20:08.937Z,4.15
2019-04-14T04:23:18.385Z,6.53
2019-04-14T04:26:08.245Z,6.78
2019-04-14T04:29:02.739Z,6.08
2019-04-14T04:31:50.182Z,5.10
2019-04-14T04:34:44.579Z,5.70
2019-04-14T04:37:23.631Z,10.05
2019-04-14T04:39:56.167Z,9.23
2019-04-14T04:42:28.719Z,9.28
2019-04-14T04:45:01.824Z,12.18
2019-04-14T04:47:34.263Z,11.43
2019-04-14T04:50:06.924Z,9.75
2019-04-14T04:52:39.201Z,9.65
2019-04-14T04:55:11.569Z,12.28
2019-04-14T04:57:43.882Z,9.73
2019-04-14T05:00:17.870Z,12.70
2019-04-14T05:02:50.641Z,12.07
2019-04-14T05:06:09.633Z,10.18
2019-04-14T05:08:48.669Z,9.25
2019-04-14T05:11:29.483Z,7.83
2019-04-14T05:14:04.791Z,10.18
2019-04-14T05:16:36.971Z,11.88
2019-04-14T05:19:18.481Z,12.03
2019-04-14T05:21:43.303Z,10.68
2019-04-14T05:24:15.745Z,9.73
2019-04-14T05:26:48.483Z,9.38
2019-04-14T05:29:21.085Z,7.80
2019-04-14T05:31:53.391Z,9.55
2019-04-14T05:34:26.139Z,8.88
2019-04-14T05:36:58.557Z,10.28
2019-04-14T05:39:30.841Z,8.50
2019-04-14T05:42:09.427Z,10.55
2019-04-14T05:44:38.168Z,10.28
2019-04-14T05:47:11.091Z,11.97
2019-04-14T05:49:48.227Z,13.83
2019-04-14T05:52:18.498Z,9.75
2019-04-14T05:54:51.494Z,10.25
2019-04-14T05:57:24.375Z,7.83
2019-04-14T05:59:57.033Z,7.20
2019-04-14T06:02:31.014Z,11.25
2019-04-14T06:05:03.730Z,13.60
2019-04-14T06:07:36.135Z,11.08
2019-04-14T06:10:09.322Z,8.30
2019-04-14T06:12:41.855Z,10.85
2019-04-14T06:15:14.487Z,9.05
2019-04-14T06:17:46.926Z,8.00
2019-04-14T06:20:19.516Z,6.70
2019-04-14T06:22:51.883Z,8.75
2019-04-14T06:25:24.309Z,7.70
2019-04-14T06:27:56.560Z,7.65
2019-04-14T06:30:50.204Z,4.58
2019-04-14T06:33:31.713Z,5.53
2019-04-14T06:36:34.867Z,4.50
2019-04-14T06:39:21.230Z,5.00
2019-04-14T06:41:53.678Z,4.95
2019-04-14T06:44:26.125Z,4.12
2019-04-14T06:46:58.654Z,7.15
2019-04-14T06:49:31.023Z,5.53
2019-04-14T06:52:03.249Z,5.60
2019-04-14T06:54:35.638Z,6.00
2019-04-14T06:57:07.834Z,4.72
2019-04-14T06:59:41.662Z,5.28
2019-04-14T07:02:15.614Z,4.90
2019-04-14T07:04:50.497Z,4.80
2019-04-14T07:07:23.056Z,5.65
2019-04-14T07:09:55.673Z,5.35
2019-04-14T07:12:28.258Z,4.87
2019-04-14T07:15:01.036Z,4.65
2019-04-14T07:17:33.654Z,4.47
2019-04-14T07:20:06.858Z,4.80
2019-04-14T07:22:39.330Z,4.45
2019-04-14T07:25:11.732Z,4.28
2019-04-14T07:27:44.220Z,3.72
2019-04-14T07:30:34.343Z,3.67
2019-04-14T07:33:17.120Z,7.22
2019-04-14T07:36:11.042Z,5.97
2019-04-14T07:38:50.798Z,5.55
2019-04-14T07:41:39.898Z,6.33
2019-04-14T07:44:42.697Z,5.90
2019-04-14T07:47:28.757Z,5.45
2019-04-14T07:50:23.124Z,4.92
2019-04-14T07:53:05.197Z,4.78
2019-04-14T07:56:08.889Z,5.55
2019-04-14T07:59:02.961Z,5.92
2019-04-14T08:01:40.396Z,5.37
2019-04-14T08:04:33.774Z,6.28
2019-04-14T08:07:06.083Z,5.40
2019-04-14T08:09:38.306Z,5.12
2019-04-14T08:12:10.806Z,5.20
2019-04-14T08:14:43.199Z,6.60
2019-04-14T08:17:15.541Z,5.45
2019-04-14T08:19:47.891Z,4.83
2019-04-14T08:22:20.096Z,5.67
2019-04-14T08:28:39.491Z,5.22
2019-04-14T08:31:12.053Z,4.83
2019-04-14T08:33:44.428Z,4.60
2019-04-14T08:36:16.693Z,4.22
2019-04-14T08:38:49.228Z,4.20
2019-04-14T08:41:22.021Z,4.53
2019-04-14T08:44:18.933Z,4.17
2019-04-14T08:47:25.063Z,6.47
2019-04-14T08:50:05.222Z,5.65
2019-04-14T08:52:56.187Z,4.60
2019-04-14T08:55:47.474Z,5.05
2019-04-14T08:58:56.737Z,5.78
2019-04-14T09:01:48.093Z,6.40
2019-04-14T09:04:48.273Z,4.58
2019-04-14T09:07:27.801Z,4.90
2019-04-14T09:10:22.157Z,4.37
2019-04-14T09:12:55.453Z,4.00
2019-04-14T09:15:28.278Z,4.20
2019-04-14T09:18:00.479Z,3.50
2019-04-14T09:20:33.036Z,4.00
2019-04-14T09:23:05.334Z,5.17
2019-04-14T09:25:37.782Z,4.30
2019-04-14T09:28:10.567Z,4.35
2019-04-14T09:30:42.964Z,4.62
2019-04-14T09:33:15.297Z,3.75
2019-04-14T09:35:47.677Z,3.80
2019-04-14T09:38:20.015Z,5.55
2019-04-14T09:40:52.643Z,5.33
2019-04-14T09:43:24.975Z,4.53
2019-04-14T09:45:57.564Z,4.90
2019-04-14T09:48:30.116Z,3.85
2019-04-14T09:51:05.046Z,4.83
2019-04-14T09:53:36.496Z,6.45
2019-04-14T09:56:09.152Z,5.17
2019-04-14T09:58:41.891Z,4.83
2019-04-14T10:01:14.064Z,4.53
2019-04-14T10:03:46.256Z,3.80
2019-04-14T10:06:18.678Z,4.30
2019-04-14T10:08:50.884Z,5.33
2019-04-14T10:11:24.014Z,4.22
2019-04-14T10:13:56.394Z,4.80
2019-04-14T10:16:29.251Z,5.40
2019-04-14T10:19:01.885Z,4.92
2019-04-14T10:21:34.827Z,4.17
2019-04-14T10:24:07.333Z,4.08
2019-04-14T10:26:39.661Z,4.05
2019-04-14T10:29:12.191Z,3.33
2019-04-14T10:31:44.871Z,3.27
2019-04-14T10:34:17.338Z,4.30
2019-04-14T10:36:50.101Z,4.03
2019-04-14T10:39:22.619Z,3.90
2019-04-14T10:41:55.296Z,3.80
2019-04-14T10:44:28.053Z,4.22
2019-04-14T10:47:00.509Z,4.55
2019-04-14T10:49:32.790Z,4.70
2019-04-14T10:52:05.543Z,3.65
2019-04-14T10:54:37.901Z,4.03
2019-04-14T10:57:10.339Z,3.98
2019-04-14T10:59:43.204Z,3.72
2019-04-14T11:02:15.881Z,4.20
2019-04-14T11:04:48.523Z,3.70
2019-04-14T11:07:32.134Z,4.25
2019-04-14T11:10:04.632Z,4.20
2019-04-14T11:12:37.362Z,3.90
2019-04-14T11:15:11.379Z,4.28
2019-04-14T11:17:44.363Z,3.87
2019-04-14T11:20:17.079Z,3.58
2019-04-14T11:23:02.479Z,3.95
2019-04-14T11:25:24.448Z,3.35
2019-04-14T11:27:57.160Z,4.28
2019-04-14T11:30:29.999Z,3.83
2019-04-14T11:33:13.918Z,3.00
2019-04-14T11:36:04.783Z,3.60
2019-04-14T11:38:44.663Z,3.67
2019-04-14T11:41:20.593Z,3.62
2019-04-14T11:43:53.059Z,4.00
2019-04-14T11:46:25.563Z,2.60
2019-04-14T11:48:58.203Z,2.72
2019-04-14T11:51:30.525Z,3.47
2019-04-14T11:54:02.891Z,3.50
2019-04-14T11:56:35.426Z,3.20
2019-04-14T11:59:08.648Z,3.17
2019-04-14T12:02:02.674Z,2.60
2019-04-14T12:04:59.446Z,2.98
2019-04-14T12:07:41.895Z,2.80
2019-04-14T12:10:19.941Z,3.33
2019-04-14T12:12:52.264Z,2.70
2019-04-14T12:15:24.601Z,2.83
2019-04-14T12:17:57.322Z,2.58
2019-04-14T12:20:29.678Z,2.17
2019-04-14T12:23:01.894Z,2.12
2019-04-14T12:25:34.292Z,2.27
2019-04-14T12:28:06.955Z,3.02
2019-04-14T12:30:39.927Z,2.80
2019-04-14T12:33:13.110Z,3.05
2019-04-14T12:35:45.438Z,2.25
2019-04-14T12:38:18.018Z,2.40
2019-04-14T12:40:52.345Z,2.30
2019-04-14T12:43:36.038Z,2.17
2019-04-14T12:46:32.937Z,2.10
2019-04-14T12:49:24.119Z,1.98
2019-04-14T12:52:21.181Z,2.00
2019-04-14T12:54:47.266Z,2.00
2019-04-14T12:57:25.969Z,1.80
2019-04-14T12:59:58.635Z,1.60
2019-04-14T13:02:34.404Z,2.10
2019-04-14T13:05:07.834Z,2.00
2019-04-14T13:07:40.593Z,2.10
2019-04-14T13:10:13.203Z,2.67
2019-04-14T13:12:45.505Z,2.83
2019-04-14T13:15:18.338Z,2.80
2019-04-14T13:17:50.743Z,2.58
2019-04-14T13:20:23.360Z,2.30
2019-04-14T13:22:55.879Z,2.65
2019-04-14T13:25:28.263Z,2.00
2019-04-14T13:28:00.420Z,2.60
2019-04-14T13:30:36.448Z,2.27
2019-04-14T13:33:09.133Z,2.00
2019-04-14T13:35:41.781Z,2.20
2019-04-14T13:38:14.208Z,2.30
2019-04-14T13:40:47.024Z,2.75
2019-04-14T13:43:19.560Z,1.82
2019-04-14T13:45:51.897Z,2.05
2019-04-14T13:48:24.353Z,1.90
2019-04-14T13:50:56.661Z,2.40
2019-04-14T13:53:29.207Z,2.30
2019-04-14T13:56:01.611Z,1.72
2019-04-14T13:58:37.342Z,2.00
2019-04-14T14:01:08.639Z,2.10
2019-04-14T14:03:40.992Z,1.85
2019-04-14T14:06:13.600Z,1.70
2019-04-14T14:08:46.263Z,1.40
2019-04-14T14:11:56.022Z,1.60
2019-04-14T14:14:48.659Z,2.02
2019-04-14T14:17:42.762Z,1.52
2019-04-14T14:20:23.509Z,1.60
2019-04-14T14:23:27.981Z,1.72
2019-04-14T14:26:04.380Z,1.75
2019-04-14T14:28:38.669Z,1.62
2019-04-14T14:31:10.614Z,1.67
2019-04-14T14:33:45.358Z,2.17
2019-04-14T14:36:17.863Z,2.20
2019-04-14T14:38:50.306Z,1.85
2019-04-14T14:41:22.540Z,1.90
2019-04-14T14:43:55.198Z,1.70
2019-04-14T14:46:39.853Z,2.02
2019-04-14T14:49:30.885Z,1.35
2019-04-14T14:52:08.023Z,1.40
2019-04-14T14:54:40.664Z,1.60
2019-04-14T14:57:12.848Z,1.55
2019-04-14T14:59:45.173Z,1.32
2019-04-14T15:02:17.608Z,1.72
2019-04-14T15:04:50.185Z,1.50
2019-04-14T15:07:22.670Z,1.45
2019-04-14T15:09:54.893Z,1.90
2019-04-14T15:12:27.153Z,1.67
2019-04-14T15:14:59.417Z,1.47
2019-04-14T15:17:32.087Z,1.40
2019-04-14T15:20:04.332Z,1.40
2019-04-14T15:22:36.659Z,1.70
2019-04-14T15:25:09.372Z,1.40
2019-04-14T15:27:41.615Z,1.60
2019-04-14T15:30:19.059Z,1.82
2019-04-14T15:32:51.442Z,1.40
2019-04-14T15:35:23.816Z,1.60
2019-04-14T15:37:56.064Z,1.75
2019-04-14T15:40:28.650Z,1.72
2019-04-14T15:43:01.415Z,1.40
2019-04-14T15:45:33.710Z,1.50
2019-04-14T15:48:05.970Z,1.85
2019-04-14T15:50:38.534Z,2.00
2019-04-14T15:53:11.129Z,1.60
2019-04-14T15:55:43.420Z,1.42
2019-04-14T15:58:40.514Z,2.10
2019-04-14T16:01:28.055Z,1.40
2019-04-14T16:04:05.581Z,1.90
2019-04-14T16:06:46.324Z,1.33
2019-04-14T16:09:25.103Z,1.50
2019-04-14T16:12:19.643Z,1.43
2019-04-14T16:15:25.894Z,1.70
2019-04-14T16:18:10.211Z,1.80
2019-04-14T16:20:44.399Z,1.57
2019-04-14T16:23:16.739Z,1.40
2019-04-14T16:26:13.803Z,1.60
2019-04-14T16:28:54.862Z,1.50
2019-04-14T16:31:45.104Z,1.40
2019-04-14T16:34:26.825Z,1.33
2019-04-14T16:36:59.802Z,1.20
2019-04-14T16:39:32.429Z,1.13
2019-04-14T16:42:04.902Z,1.13
2019-04-14T16:44:37.888Z,1.40
2019-04-14T16:47:10.694Z,1.70
2019-04-14T16:49:43.648Z,1.40
2019-04-14T16:52:52.816Z,1.43
2019-04-14T16:55:48.386Z,1.30
2019-04-14T16:58:34.159Z,1.03
2019-04-14T17:01:09.588Z,1.10
2019-04-14T17:03:42.586Z,1.70
2019-04-14T17:06:15.391Z,1.10
2019-04-14T17:08:48.178Z,1.27
2019-04-14T17:11:20.681Z,1.57
2019-04-14T17:14:17.647Z,1.27
2019-04-14T17:17:21.573Z,1.30
2019-04-14T17:20:08.743Z,1.20
2019-04-14T17:23:03.832Z,1.00
2019-04-14T17:25:41.091Z,1.17
2019-04-14T17:28:22.430Z,1.20
2019-04-14T17:30:59.343Z,1.27
2019-04-14T17:33:40.295Z,1.00
2019-04-14T17:36:31.273Z,1.37
2019-04-14T17:39:22.703Z,1.37
2019-04-14T17:42:13.671Z,1.23
2019-04-14T17:45:05.019Z,1.17
2019-04-14T17:48:05.271Z,1.13
2019-04-14T17:50:45.387Z,1.60
2019-04-14T17:53:36.552Z,1.00
2019-04-14T17:56:26.839Z,1.10
2019-04-14T17:59:25.000Z,1.10
2019-04-14T18:02:31.900Z,1.10
2019-04-14T18:05:10.417Z,1.20
2019-04-14T18:07:55.647Z,1.07
2019-04-14T18:10:42.703Z,1.20
2019-04-14T18:13:36.913Z,1.30
2019-04-14T18:16:18.894Z,1.40
2019-04-14T18:19:22.419Z,1.13
2019-04-14T18:21:55.056Z,0.80
2019-04-14T18:24:27.809Z,1.10
2019-04-14T18:27:00.046Z,1.00
2019-04-14T18:29:43.570Z,1.00
2019-04-14T18:32:23.772Z,0.90
2019-04-14T18:35:05.000Z,1.37
2019-04-14T18:37:47.143Z,1.30
2019-04-14T18:40:35.337Z,1.30
2019-04-14T18:43:29.062Z,0.97
2019-04-14T18:46:25.864Z,1.00
2019-04-14T18:49:06.778Z,1.00
2019-04-14T18:52:02.547Z,1.10
2019-04-14T18:54:40.830Z,1.00
2019-04-14T18:57:29.841Z,1.30
2019-04-14T19:00:16.183Z,1.20
2019-04-14T19:02:48.701Z,1.30
2019-04-14T19:05:21.067Z,1.30
2019-04-14T19:07:53.440Z,1.17
2019-04-14T19:10:25.931Z,1.30
2019-04-14T19:13:05.195Z,1.37
2019-04-14T19:15:47.518Z,1.07
2019-04-14T19:18:28.555Z,1.17
2019-04-14T19:21:06.498Z,1.10
2019-04-14T19:23:39.003Z,1.47
2019-04-14T19:26:11.929Z,1.63
2019-04-14T19:28:44.508Z,1.70
2019-04-14T19:31:17.798Z,1.47
2019-04-14T19:33:50.140Z,1.57
2019-04-14T19:36:22.962Z,1.40
2019-04-14T19:38:55.317Z,1.10
2019-04-14T19:41:27.787Z,1.30
2019-04-14T19:44:00.447Z,1.33
2019-04-14T19:46:36.576Z,1.13
2019-04-14T19:49:08.848Z,1.20
2019-04-14T19:51:41.533Z,0.80
2019-04-14T19:54:14.512Z,1.07
2019-04-14T19:56:48.249Z,1.33
2019-04-14T19:59:21.214Z,1.50
2019-04-14T20:01:53.883Z,1.30
2019-04-14T20:04:26.754Z,1.40
2019-04-14T20:06:59.652Z,1.53
2019-04-14T20:09:32.554Z,1.60
2019-04-14T20:12:05.373Z,1.57
2019-04-14T20:14:45.345Z,1.70
2019-04-14T20:17:36.543Z,1.30
2019-04-14T20:20:37.765Z,1.40
2019-04-14T20:23:28.852Z,1.27
2019-04-14T20:26:29.063Z,1.20
2019-04-14T20:29:06.254Z,1.60
2019-04-14T20:31:45.870Z,1.30
2019-04-14T20:34:18.628Z,1.40
2019-04-14T20:36:51.780Z,1.27
2019-04-14T20:39:27.097Z,1.57
2019-04-14T20:41:59.669Z,1.40
2019-04-14T20:44:32.243Z,1.43
2019-04-14T20:47:04.830Z,1.27
2019-04-14T20:49:37.539Z,1.23
2019-04-14T20:52:10.519Z,1.20
2019-04-14T20:54:43.197Z,0.87
2019-04-14T20:57:16.061Z,0.90
2019-04-14T20:59:48.866Z,1.10
2019-04-14T21:02:40.499Z,0.93
2019-04-14T21:05:38.557Z,0.90
2019-04-14T21:08:37.514Z,1.10
2019-04-14T21:11:41.543Z,1.00
2019-04-14T21:14:24.082Z,1.27
2019-04-14T21:17:21.593Z,1.13
2019-04-14T21:20:02.823Z,1.20
2019-04-14T21:22:57.192Z,0.90
2019-04-14T21:26:04.136Z,0.80
2019-04-14T21:28:54.142Z,1.17
2019-04-14T21:31:50.513Z,0.80
2019-04-14T21:34:51.076Z,0.70
2019-04-14T21:37:41.096Z,0.90
2019-04-14T21:40:55.750Z,0.87
2019-04-14T21:43:28.439Z,0.60
2019-04-14T21:46:01.498Z,0.93
2019-04-14T21:48:34.478Z,0.93
2019-04-14T21:51:06.961Z,0.90
2019-04-14T21:53:39.828Z,0.77
2019-04-14T21:56:13.891Z,0.90
2019-04-14T21:59:01.952Z,0.80
2019-04-14T22:01:55.690Z,0.83
2019-04-14T22:04:45.294Z,0.77
2019-04-14T22:07:34.982Z,1.00
2019-04-14T22:10:30.483Z,0.70
2019-04-14T22:13:03.300Z,0.70
2019-04-14T22:15:35.978Z,1.07
2019-04-14T22:18:08.731Z,0.73
2019-04-14T22:20:41.353Z,0.87
2019-04-14T22:23:14.023Z,0.80
2019-04-14T22:25:46.826Z,0.90
2019-04-14T22:28:19.311Z,0.70
2019-04-14T22:30:52.106Z,0.70
2019-04-14T22:33:24.805Z,0.80
2019-04-14T22:35:57.490Z,0.70
2019-04-14T22:38:30.122Z,0.70
2019-04-14T22:41:02.712Z,0.80
2019-04-14T22:43:35.596Z,0.90
2019-04-14T22:46:08.127Z,0.93
2019-04-14T22:48:40.499Z,0.83
2019-04-14T22:51:13.469Z,0.87
2019-04-14T22:53:46.054Z,0.57
2019-04-14T22:56:18.674Z,1.10
2019-04-14T22:58:51.480Z,0.60
2019-04-14T23:01:28.335Z,0.70
2019-04-14T23:04:19.509Z,0.80
2019-04-14T23:07:08.512Z,0.80
2019-04-14T23:09:52.564Z,0.87
2019-04-14T23:12:43.826Z,0.63
2019-04-14T23:15:36.951Z,0.83
2019-04-14T23:18:24.173Z,0.67
2019-04-14T23:21:18.219Z,0.77
2019-04-14T23:24:10.468Z,0.90
2019-04-14T23:26:52.260Z,0.70
2019-04-14T23:29:18.490Z,0.87
2019-04-14T23:31:52.951Z,0.70
2019-04-14T23:34:25.932Z,0.80
2019-04-14T23:36:58.583Z,0.70
2019-04-14T23:39:31.505Z,1.10
2019-04-14T23:42:04.318Z,0.90
2019-04-14T23:44:37.387Z,1.20
2019-04-14T23:47:10.048Z,1.27
2019-04-14T23:49:43.082Z,1.17
2019-04-14T23:52:15.885Z,1.20
2019-04-14T23:54:48.629Z,1.20
2019-04-14T23:57:21.133Z,1.30
2019-04-14T23:59:53.836Z,1.03
